Time;durP1;ratioP1;P1;durP2;ratioP2;P2;SDS_P1;SDS_P2;PMS_P1;PMS_P2;Temp;Humidity;BMP_temperature;BMP_pressure;BME280_temperature;BME280_humidity;BME280_pressure;Samples;Min_cycle;Max_cycle;Signal;HPM_P1;HPM_P2
2022/12/11 00:00:10;;;;;;;64.97;31.92;;;4.20;55.30;;;;;;5040324;28;21063;-46
2022/12/11 00:02:37;;;;;;;65.82;30.40;;;4.20;55.30;;;;;;5044259;28;20516;-43
2022/12/11 00:05:05;;;;;;;63.55;30.67;;;4.30;55.30;;;;;;5042478;28;20072;-43
2022/12/11 00:07:32;;;;;;;58.15;29.90;;;4.20;55.20;;;;;;5042998;28;20468;-46
2022/12/11 00:10:01;;;;;;;67.97;31.27;;;4.20;55.20;;;;;;5043255;28;20053;-44
2022/12/11 00:12:30;;;;;;;59.45;29.90;;;4.20;55.30;;;;;;5041506;28;20064;-45
2022/12/11 00:14:57;;;;;;;62.97;29.67;;;4.30;55.40;;;;;;5041032;28;20179;-47
2022/12/11 00:17:24;;;;;;;61.95;31.85;;;4.30;55.40;;;;;;5042241;28;20057;-44
2022/12/11 00:19:51;;;;;;;62.88;30.05;;;4.30;55.40;;;;;;5044136;28;20077;-44
2022/12/11 00:22:19;;;;;;;65.80;31.17;;;4.30;55.50;;;;;;5038015;28;20052;-43
2022/12/11 00:24:46;;;;;;;58.75;29.70;;;4.30;55.40;;;;;;5043558;28;20061;-42
2022/12/11 00:27:14;;;;;;;63.30;30.02;;;4.30;55.40;;;;;;5043801;28;20049;-43
2022/12/11 00:29:42;;;;;;;61.95;30.25;;;4.30;55.40;;;;;;5040300;28;20481;-45
2022/12/11 00:32:09;;;;;;;59.83;29.75;;;4.30;55.40;;;;;;5041297;28;20060;-46
2022/12/11 00:34:36;;;;;;;60.67;30.58;;;4.30;55.40;;;;;;5042466;28;20056;-42
2022/12/11 00:37:04;;;;;;;60.17;29.52;;;4.30;55.40;;;;;;5041882;28;20048;-43
2022/12/11 00:39:31;;;;;;;58.15;28.88;;;4.30;55.40;;;;;;5042985;28;20048;-42
2022/12/11 00:41:58;;;;;;;65.53;30.52;;;4.40;55.40;;;;;;5036260;28;20480;-46
2022/12/11 00:44:27;;;;;;;71.47;33.33;;;4.40;55.40;;;;;;5040498;28;20996;-44
2022/12/11 00:46:54;;;;;;;69.22;32.03;;;4.40;55.40;;;;;;5042611;28;20056;-47
2022/12/11 00:49:21;;;;;;;68.28;32.30;;;4.40;55.30;;;;;;5041909;28;20064;-43
2022/12/11 00:51:48;;;;;;;57.65;30.30;;;4.40;55.30;;;;;;5039690;28;20064;-43
2022/12/11 00:54:16;;;;;;;72.13;33.60;;;4.40;55.30;;;;;;5042969;28;20057;-44
2022/12/11 00:56:43;;;;;;;68.78;32.40;;;4.40;55.30;;;;;;5041536;28;20493;-47
2022/12/11 00:59:10;;;;;;;63.75;32.75;;;4.40;55.30;;;;;;5041254;28;20171;-47
2022/12/11 01:01:39;;;;;;;61.83;29.98;;;4.40;55.30;;;;;;5041770;28;20053;-44
2022/12/11 01:04:06;;;;;;;65.82;31.67;;;4.40;55.40;;;;;;5043596;28;20061;-46
2022/12/11 01:06:33;;;;;;;61.65;31.00;;;4.40;55.40;;;;;;5042403;28;20123;-42
2022/12/11 01:11:45;;;;;;;66.82;32.45;;;4.40;55.40;;;;;;5046329;28;20051;-42
2022/12/11 01:14:13;;;;;;;65.65;32.03;;;4.40;55.30;;;;;;5041180;28;20063;-46
2022/12/11 01:16:42;;;;;;;66.30;31.58;;;4.30;55.30;;;;;;5042308;28;20059;-42
2022/12/11 01:19:09;;;;;;;73.28;33.58;;;4.30;55.30;;;;;;5042235;28;20059;-43
2022/12/11 01:21:36;;;;;;;65.53;33.17;;;4.30;55.40;;;;;;5038489;28;20068;-44
2022/12/11 01:24:04;;;;;;;75.10;34.42;;;4.30;55.40;;;;;;5041198;28;20049;-45
2022/12/11 01:26:31;;;;;;;67.63;34.38;;;4.30;55.50;;;;;;5041911;28;20057;-43
2022/12/11 01:28:58;;;;;;;68.47;34.47;;;4.30;55.50;;;;;;5040229;28;21328;-47
2022/12/11 01:31:26;;;;;;;61.40;30.17;;;4.20;55.60;;;;;;5039090;28;20083;-43
2022/12/11 01:33:55;;;;;;;63.90;31.90;;;4.20;55.70;;;;;;5041621;28;20060;-47
2022/12/11 01:36:24;;;;;;;65.40;33.30;;;4.20;55.70;;;;;;5041139;28;20053;-43
2022/12/11 01:38:53;;;;;;;71.65;34.70;;;4.20;55.80;;;;;;5041306;28;20493;-47
2022/12/11 01:41:20;;;;;;;64.35;32.25;;;4.20;55.80;;;;;;5038119;28;20045;-46
2022/12/11 01:43:59;;;;;;;58.80;29.52;;;4.20;55.90;;;;;;5041126;28;20053;-44
2022/12/11 01:46:27;;;;;;;58.15;29.30;;;4.20;55.90;;;;;;5042282;28;20048;-46
2022/12/11 01:48:58;;;;;;;63.72;31.10;;;4.20;55.90;;;;;;5042780;28;20171;-44
2022/12/11 01:51:27;;;;;;;64.72;32.03;;;4.20;56.00;;;;;;5036656;28;20057;-44
2022/12/11 01:53:58;;;;;;;60.60;29.50;;;4.20;56.00;;;;;;5041018;28;20415;-44
2022/12/11 01:56:26;;;;;;;67.00;31.58;;;4.20;56.00;;;;;;5040838;28;20052;-46
2022/12/11 01:58:59;;;;;;;70.15;30.73;;;4.20;56.00;;;;;;5041489;28;20045;-45
2022/12/11 02:01:32;;;;;;;66.25;31.63;;;4.20;56.10;;;;;;5040838;28;20266;-54
2022/12/11 02:04:02;;;;;;;70.20;33.10;;;4.20;56.00;;;;;;5042933;28;20053;-52
2022/12/11 02:06:35;;;;;;;60.28;29.75;;;4.20;56.00;;;;;;5040031;28;20051;-54
2022/12/11 02:09:03;;;;;;;66.78;32.38;;;4.20;56.10;;;;;;5039068;28;20053;-50
2022/12/11 02:11:39;;;;;;;63.83;31.33;;;4.20;56.10;;;;;;5036114;28;20500;-55
2022/12/11 02:14:17;;;;;;;72.72;34.25;;;4.20;56.10;;;;;;5040623;28;20516;-50
2022/12/11 02:16:50;;;;;;;85.47;37.55;;;4.30;56.20;;;;;;5042993;28;20523;-53
2022/12/11 02:19:36;;;;;;;75.25;35.58;;;4.30;56.20;;;;;;5040032;28;20045;-48
2022/12/11 02:22:08;;;;;;;80.47;33.40;;;4.30;56.10;;;;;;5037949;28;20056;-55
2022/12/11 02:24:58;;;;;;;82.68;36.72;;;4.30;56.10;;;;;;5041967;28;20488;-51
2022/12/11 02:27:32;;;;;;;78.18;35.47;;;4.30;56.20;;;;;;5041895;28;20498;-54
2022/12/11 02:30:05;;;;;;;90.82;38.30;;;4.30;56.20;;;;;;5038451;28;20546;-54
2022/12/11 02:32:38;;;;;;;83.78;36.05;;;4.30;56.20;;;;;;5041758;28;20393;-55
2022/12/11 02:35:12;;;;;;;74.30;33.42;;;4.30;56.20;;;;;;5040647;28;20061;-51
2022/12/11 02:37:41;;;;;;;;;;;4.30;56.20;;;;;;5037110;28;20068;-53
2022/12/11 02:40:12;;;;;;;68.68;32.20;;;4.30;56.20;;;;;;5039971;28;19921;-54
2022/12/11 02:42:42;;;;;;;86.18;35.97;;;4.30;56.20;;;;;;5045478;28;20056;-53
2022/12/11 02:45:13;;;;;;;77.72;34.20;;;4.30;56.20;;;;;;5043448;28;20488;-55
2022/12/11 02:47:43;;;;;;;76.28;33.00;;;4.30;56.20;;;;;;5043617;28;20048;-47
2022/12/11 02:50:15;;;;;;;75.03;34.80;;;4.30;56.30;;;;;;5038471;28;20126;-50
2022/12/11 02:52:44;;;;;;;83.65;36.65;;;4.30;56.40;;;;;;5044359;28;20394;-55
2022/12/11 02:55:14;;;;;;;75.93;34.70;;;4.30;56.50;;;;;;5042833;28;20058;-54
2022/12/11 02:57:46;;;;;;;73.47;32.50;;;4.30;56.50;;;;;;5044841;28;20076;-54
2022/12/11 03:00:17;;;;;;;79.45;34.78;;;4.30;56.50;;;;;;5041997;28;20497;-53
2022/12/11 03:02:45;;;;;;;66.88;32.88;;;4.30;56.50;;;;;;5046213;28;20123;-48
2022/12/11 03:05:14;;;;;;;80.63;36.95;;;4.40;56.60;;;;;;5045067;28;20057;-54
2022/12/11 03:07:44;;;;;;;84.80;37.17;;;4.30;56.50;;;;;;5042987;28;20060;-47
2022/12/11 03:10:15;;;;;;;84.95;37.75;;;4.40;56.60;;;;;;5038005;28;20496;-45
2022/12/11 03:12:45;;;;;;;82.93;35.53;;;4.40;56.60;;;;;;5045594;28;20049;-44
2022/12/11 03:15:17;;;;;;;76.30;34.90;;;4.40;56.50;;;;;;5042889;28;20056;-45
2022/12/11 03:17:55;;;;;;;73.85;33.92;;;4.40;56.50;;;;;;5045138;28;20053;-42
2022/12/11 03:20:30;;;;;;;73.45;35.22;;;4.40;56.50;;;;;;5041827;28;20056;-43
2022/12/11 03:23:07;;;;;;;68.78;32.83;;;4.40;56.60;;;;;;5041435;28;20067;-45
2022/12/11 03:25:42;;;;;;;67.05;32.40;;;4.40;56.70;;;;;;5042826;28;20511;-47
2022/12/11 03:28:13;;;;;;;68.75;31.05;;;4.40;56.60;;;;;;5044621;28;20068;-45
2022/12/11 03:30:43;;;;;;;79.53;36.13;;;4.50;56.70;;;;;;5040342;28;20049;-41
2022/12/11 03:33:15;;;;;;;72.93;34.03;;;4.50;56.70;;;;;;5043749;28;20060;-45
2022/12/11 03:35:45;;;;;;;90.07;37.47;;;4.50;56.60;;;;;;5043196;28;20068;-43
2022/12/11 03:38:18;;;;;;;84.85;36.40;;;4.50;56.60;;;;;;5044665;28;20681;-43
2022/12/11 03:40:49;;;;;;;82.20;36.60;;;4.50;56.60;;;;;;5036457;28;20531;-43
2022/12/11 03:43:16;;;;;;;93.65;38.47;;;4.50;56.50;;;;;;5045719;28;20512;-46
2022/12/11 03:45:49;;;;;;;88.88;38.67;;;4.50;56.60;;;;;;5042241;28;20060;-45
2022/12/11 03:48:18;;;;;;;91.55;40.20;;;4.50;56.50;;;;;;5045460;28;20087;-42
2022/12/11 03:50:46;;;;;;;101.15;40.67;;;4.50;56.50;;;;;;5036647;28;20049;-45
2022/12/11 03:53:15;;;;;;;100.80;40.40;;;4.50;56.50;;;;;;5041618;28;20057;-42
2022/12/11 03:55:42;;;;;;;93.65;39.30;;;4.50;56.50;;;;;;5043376;28;20057;-46
2022/12/11 03:58:10;;;;;;;103.40;40.38;;;4.50;56.50;;;;;;5045304;28;20082;-46
2022/12/11 04:00:38;;;;;;;102.25;41.20;;;4.50;56.50;;;;;;5037533;28;20583;-43
2022/12/11 04:03:12;;;;;;;86.80;36.15;;;4.50;56.60;;;;;;5045246;28;20063;-41
2022/12/11 04:05:40;;;;;;;83.43;34.88;;;4.50;56.60;;;;;;5038246;28;20045;-43
2022/12/11 04:08:07;;;;;;;78.55;34.63;;;4.50;56.60;;;;;;5043030;28;20057;-45
2022/12/11 04:10:35;;;;;;;86.97;35.40;;;4.50;56.60;;;;;;5040513;28;20056;-45
2022/12/11 04:13:02;;;;;;;88.25;36.60;;;4.50;56.60;;;;;;5044409;28;20053;-46
2022/12/11 04:15:28;;;;;;;83.38;36.78;;;4.50;56.60;;;;;;5040721;28;20048;-42
2022/12/11 04:26:13;;;;;;;83.53;35.95;;;4.50;56.60;;;;;;5048958;28;20388;-46
2022/12/11 04:28:43;;;;;;;80.00;34.08;;;4.50;56.60;;;;;;5043796;28;20056;-48
2022/12/11 04:31:12;;;;;;;78.93;33.60;;;4.50;56.60;;;;;;5039642;28;20063;-44
2022/12/11 04:33:39;;;;;;;86.03;34.97;;;4.50;56.70;;;;;;5039264;28;20175;-44
2022/12/11 04:36:10;;;;;;;78.97;35.38;;;4.50;56.70;;;;;;5040412;28;20586;-44
2022/12/11 04:38:37;;;;;;;88.57;37.55;;;4.50;56.70;;;;;;5042130;28;20065;-45
2022/12/11 04:41:07;;;;;;;76.80;35.22;;;4.50;57.30;;;;;;5041163;28;20061;-43
2022/12/11 04:43:35;;;;;;;87.20;36.53;;;4.50;56.70;;;;;;5044667;28;20052;-47
2022/12/11 04:46:04;;;;;;;82.82;33.85;;;4.50;56.90;;;;;;5042593;28;20056;-46
2022/12/11 04:48:31;;;;;;;78.45;32.33;;;4.50;56.90;;;;;;5043741;28;20523;-43
2022/12/11 04:50:59;;;;;;;75.53;32.85;;;4.50;56.90;;;;;;5036367;28;20053;-45
2022/12/11 04:53:28;;;;;;;84.35;35.00;;;4.50;56.90;;;;;;5041263;28;20057;-44
2022/12/11 04:55:55;;;;;;;79.22;33.60;;;4.50;57.00;;;;;;5042669;28;20048;-45
2022/12/11 04:58:23;;;;;;;96.75;37.67;;;4.50;57.00;;;;;;5036749;28;20056;-43
2022/12/11 05:00:51;;;;;;;68.95;32.30;;;4.50;57.10;;;;;;5031740;28;20412;-46
2022/12/11 05:03:18;;;;;;;85.85;36.85;;;4.50;57.10;;;;;;5041428;28;20065;-43
2022/12/11 05:05:49;;;;;;;90.35;37.00;;;4.50;57.10;;;;;;5041305;28;20061;-44
2022/12/11 05:08:16;;;;;;;76.63;33.85;;;4.60;57.00;;;;;;5039805;28;20049;-44
2022/12/11 05:10:45;;;;;;;74.43;31.95;;;4.60;57.50;;;;;;5035880;28;20053;-46
2022/12/11 05:13:12;;;;;;;77.68;33.88;;;4.60;57.00;;;;;;5038921;28;20056;-43
2022/12/11 05:15:40;;;;;;;78.05;32.78;;;4.60;57.00;;;;;;5041803;28;20060;-43
2022/12/11 05:18:07;;;;;;;80.95;33.20;;;4.60;57.00;;;;;;5032995;28;20056;-44
2022/12/11 05:20:35;;;;;;;76.55;32.30;;;4.60;57.00;;;;;;5040159;28;20061;-48
2022/12/11 05:23:02;;;;;;;76.38;31.17;;;4.60;56.90;;;;;;5040574;28;20053;-46
2022/12/11 05:25:29;;;;;;;135.48;58.33;;;4.60;56.90;;;;;;5043099;28;20059;-46
2022/12/11 05:27:58;;;;;;;215.95;78.68;;;4.70;56.90;;;;;;5042306;28;20061;-48
2022/12/11 05:30:25;;;;;;;128.10;49.55;;;4.70;56.90;;;;;;5034225;28;20063;-45
2022/12/11 05:32:52;;;;;;;92.03;38.75;;;4.70;56.90;;;;;;5043174;28;20057;-44
2022/12/11 05:35:19;;;;;;;74.32;33.15;;;4.70;56.90;;;;;;5039536;28;20064;-44
2022/12/11 05:37:47;;;;;;;75.65;32.20;;;4.70;56.90;;;;;;5041053;28;20119;-46
2022/12/11 05:40:14;;;;;;;72.90;30.90;;;4.70;56.80;;;;;;5039188;28;20060;-43
2022/12/11 05:42:42;;;;;;;76.97;33.33;;;4.70;56.80;;;;;;5039797;28;20048;-42
2022/12/11 05:45:11;;;;;;;81.13;33.45;;;4.70;56.80;;;;;;5043248;28;20053;-47
2022/12/11 05:47:38;;;;;;;88.13;35.75;;;4.70;56.80;;;;;;5042832;28;20052;-44
2022/12/11 05:50:06;;;;;;;83.57;34.47;;;4.70;56.70;;;;;;5041475;28;20053;-42
2022/12/11 05:52:33;;;;;;;95.97;36.17;;;4.80;56.80;;;;;;5042239;28;20057;-42
2022/12/11 05:55:00;;;;;;;89.47;35.35;;;4.80;56.70;;;;;;5041291;28;20492;-42
2022/12/11 05:57:28;;;;;;;110.63;38.72;;;4.70;56.70;;;;;;5040150;28;20064;-43
2022/12/11 05:59:55;;;;;;;92.88;35.85;;;4.80;56.70;;;;;;5040921;28;20045;-42
2022/12/11 06:02:23;;;;;;;116.47;41.10;;;4.80;56.70;;;;;;5040149;28;20053;-49
2022/12/11 06:04:51;;;;;;;90.60;35.17;;;4.70;56.70;;;;;;5041221;28;20505;-45
2022/12/11 06:07:18;;;;;;;85.95;34.88;;;4.70;56.70;;;;;;5041958;28;20063;-46
2022/12/11 06:09:46;;;;;;;80.55;32.90;;;4.70;56.70;;;;;;5043140;28;20428;-45
2022/12/11 06:12:14;;;;;;;89.63;32.97;;;4.70;56.70;;;;;;5039514;28;20064;-48
2022/12/11 06:14:41;;;;;;;93.90;37.47;;;4.70;56.70;;;;;;5038423;28;20523;-48
2022/12/11 06:17:08;;;;;;;98.28;37.00;;;4.70;56.70;;;;;;5043645;28;20053;-48
2022/12/11 06:19:37;;;;;;;89.25;33.83;;;4.70;56.80;;;;;;5045785;28;20045;-44
2022/12/11 06:22:04;;;;;;;74.40;28.80;;;4.70;56.80;;;;;;5045410;28;20135;-47
2022/12/11 06:24:31;;;;;;;74.57;28.98;;;4.70;56.80;;;;;;5045062;28;20096;-42
2022/12/11 06:26:59;;;;;;;89.00;31.98;;;4.70;56.90;;;;;;5046017;28;20067;-46
2022/12/11 06:29:26;;;;;;;67.30;28.17;;;4.70;56.90;;;;;;5045658;28;20057;-44
2022/12/11 06:31:53;;;;;;;73.47;27.83;;;4.70;56.90;;;;;;5041295;28;20052;-48
2022/12/11 06:34:20;;;;;;;64.78;27.20;;;4.70;56.90;;;;;;5043186;28;20496;-44
2022/12/11 06:36:49;;;;;;;62.58;26.73;;;4.70;56.90;;;;;;5043725;28;20052;-42
2022/12/11 06:39:16;;;;;;;63.72;25.83;;;4.70;56.90;;;;;;5046505;28;20053;-42
2022/12/11 06:41:43;;;;;;;68.03;26.98;;;4.70;56.90;;;;;;5044110;28;20049;-45
2022/12/11 06:44:11;;;;;;;67.78;27.17;;;4.80;56.90;;;;;;5045342;28;20056;-43
2022/12/11 06:46:38;;;;;;;67.22;25.92;;;4.70;56.90;;;;;;5038185;28;20059;-48
2022/12/11 06:49:05;;;;;;;62.40;27.10;;;4.70;56.90;;;;;;5045792;28;20411;-48
2022/12/11 06:51:32;;;;;;;71.68;28.30;;;4.70;56.90;;;;;;5041819;28;20052;-48
2022/12/11 06:54:01;;;;;;;63.55;25.45;;;4.80;56.90;;;;;;5045491;28;20060;-45
2022/12/11 06:56:28;;;;;;;62.38;25.88;;;4.80;56.90;;;;;;5045747;28;20389;-42
2022/12/11 06:58:56;;;;;;;59.90;25.38;;;4.70;56.70;;;;;;5043117;28;20056;-44
2022/12/11 07:01:25;;;;;;;63.53;26.30;;;4.80;56.80;;;;;;5043245;28;20404;-46
2022/12/11 07:03:53;;;;;;;64.18;25.23;;;4.80;56.80;;;;;;5045842;28;20065;-43
2022/12/11 07:06:21;;;;;;;65.07;26.58;;;4.80;56.80;;;;;;5042972;28;20515;-44
2022/12/11 07:08:48;;;;;;;59.20;25.33;;;4.80;56.80;;;;;;5046016;28;20057;-43
2022/12/11 07:11:18;;;;;;;64.85;27.45;;;4.80;56.80;;;;;;5044353;28;20064;-44
2022/12/11 07:13:46;;;;;;;61.28;25.42;;;4.80;56.80;;;;;;5045466;28;20056;-45
2022/12/11 07:16:16;;;;;;;57.95;24.83;;;4.80;56.80;;;;;;5045196;28;20064;-44
2022/12/11 07:18:46;;;;;;;64.03;25.67;;;4.80;56.80;;;;;;5042901;28;20064;-45
2022/12/11 07:21:14;;;;;;;64.07;27.08;;;4.80;56.80;;;;;;5043123;28;20477;-43
2022/12/11 07:23:42;;;;;;;66.70;27.02;;;4.80;56.80;;;;;;5045342;28;20056;-45
2022/12/11 07:26:11;;;;;;;64.72;26.63;;;4.80;56.80;;;;;;5044970;28;20061;-46
2022/12/11 07:28:40;;;;;;;66.28;26.10;;;4.80;56.80;;;;;;5043780;28;20174;-44
2022/12/11 07:31:09;;;;;;;60.67;25.35;;;4.80;56.80;;;;;;5044333;28;20046;-45
2022/12/11 07:33:36;;;;;;;64.97;25.95;;;4.80;56.70;;;;;;5042314;28;20052;-45
2022/12/11 07:36:04;;;;;;;60.80;25.33;;;4.80;56.80;;;;;;5042104;28;20071;-44
2022/12/11 07:38:32;;;;;;;61.58;25.77;;;4.80;56.80;;;;;;5045405;28;20489;-45
2022/12/11 07:41:00;;;;;;;60.78;25.02;;;4.80;56.80;;;;;;5035448;28;20053;-43
2022/12/11 07:43:28;;;;;;;62.65;25.17;;;4.90;56.80;;;;;;5041405;28;20512;-48
2022/12/11 07:46:01;;;;;;;62.05;26.15;;;4.90;56.80;;;;;;5040163;28;20068;-42
2022/12/11 07:48:28;;;;;;;62.20;26.20;;;4.90;56.80;;;;;;5043635;28;20064;-50
2022/12/11 07:50:55;;;;;;;56.55;25.38;;;4.80;56.70;;;;;;5042533;28;20045;-42
2022/12/11 07:53:23;;;;;;;66.00;26.00;;;4.90;56.80;;;;;;5044449;28;20428;-52
2022/12/11 07:55:50;;;;;;;61.38;25.05;;;4.90;56.80;;;;;;5043592;28;20512;-48
2022/12/11 07:58:17;;;;;;;65.22;27.23;;;4.90;56.80;;;;;;5044260;28;20053;-49
2022/12/11 08:00:44;;;;;;;59.70;26.42;;;4.90;56.80;;;;;;5043353;28;20060;-44
2022/12/11 08:03:13;;;;;;;66.18;26.20;;;4.90;56.80;;;;;;5043832;28;20056;-46
2022/12/11 08:05:40;;;;;;;63.97;27.38;;;4.90;56.70;;;;;;5041230;28;20067;-46
2022/12/11 08:08:07;;;;;;;63.58;27.92;;;4.90;56.80;;;;;;5042397;28;20419;-43
2022/12/11 08:10:35;;;;;;;69.43;27.88;;;4.90;56.80;;;;;;5042937;28;20053;-43
2022/12/11 08:13:02;;;;;;;67.85;28.20;;;4.90;56.80;;;;;;5041922;28;20080;-45
2022/12/11 08:15:29;;;;;;;67.80;28.85;;;4.90;56.80;;;;;;5041320;28;20064;-43
2022/12/11 08:17:56;;;;;;;80.95;32.38;;;4.90;56.80;;;;;;5041385;28;20064;-44
2022/12/11 08:20:25;;;;;;;72.40;30.08;;;4.90;56.80;;;;;;5039767;28;20053;-45
2022/12/11 08:22:52;;;;;;;68.22;28.90;;;4.90;56.80;;;;;;5039616;28;20048;-47
2022/12/11 08:25:19;;;;;;;70.70;29.42;;;4.90;56.80;;;;;;5043888;28;20049;-45
2022/12/11 08:27:47;;;;;;;69.18;28.65;;;4.90;56.80;;;;;;5044365;28;20049;-50
2022/12/11 08:30:14;;;;;;;68.72;28.10;;;4.90;56.80;;;;;;5038988;28;20408;-42
2022/12/11 08:32:41;;;;;;;69.95;28.52;;;4.90;56.80;;;;;;5042058;28;20057;-43
2022/12/11 08:35:09;;;;;;;76.22;29.33;;;4.90;56.80;;;;;;5041205;28;20497;-44
2022/12/11 08:37:39;;;;;;;72.28;30.75;;;4.90;56.80;;;;;;5041110;28;20603;-46
2022/12/11 08:40:07;;;;;;;166.65;60.10;;;4.90;56.80;;;;;;5038280;28;20057;-47
2022/12/11 08:42:35;;;;;;;99.47;40.10;;;4.90;56.70;;;;;;5043089;28;20060;-44
2022/12/11 08:45:02;;;;;;;88.68;34.35;;;5.00;56.80;;;;;;5041722;28;20064;-49
2022/12/11 08:47:29;;;;;;;72.50;31.20;;;4.90;56.80;;;;;;5043993;28;20061;-48
2022/12/11 08:49:56;;;;;;;79.57;31.52;;;5.00;56.80;;;;;;5039083;28;20056;-46
2022/12/11 08:52:24;;;;;;;72.10;30.08;;;5.00;56.80;;;;;;5038928;28;20048;-43
2022/12/11 08:54:52;;;;;;;78.32;32.95;;;5.00;56.70;;;;;;5043134;28;20431;-45
2022/12/11 08:57:20;;;;;;;78.13;31.30;;;5.00;56.70;;;;;;5043776;28;20057;-42
2022/12/11 08:59:47;;;;;;;65.97;28.27;;;5.00;56.70;;;;;;5040339;28;20052;-46
2022/12/11 09:02:14;;;;;;;67.82;27.50;;;5.00;56.70;;;;;;5039141;28;20481;-44
2022/12/11 09:04:41;;;;;;;70.35;29.38;;;5.00;56.70;;;;;;5039702;28;20057;-43
2022/12/11 09:07:09;;;;;;;64.13;28.35;;;5.00;56.70;;;;;;5031674;28;20519;-45
2022/12/11 09:09:36;;;;;;;65.68;28.67;;;5.00;56.70;;;;;;5039095;28;20052;-45
2022/12/11 09:12:06;;;;;;;65.95;28.50;;;5.00;56.70;;;;;;5038109;28;20053;-44
2022/12/11 09:14:34;;;;;;;68.65;28.38;;;5.00;56.70;;;;;;5042453;28;20076;-43
2022/12/11 09:17:01;;;;;;;66.15;28.95;;;5.00;56.70;;;;;;5043476;28;20436;-46
2022/12/11 09:19:28;;;;;;;65.20;28.83;;;5.00;56.60;;;;;;5042254;28;20061;-47
2022/12/11 09:21:55;;;;;;;60.17;26.67;;;5.10;56.70;;;;;;5040075;28;20497;-45
2022/12/11 09:24:23;;;;;;;58.90;26.35;;;5.10;56.70;;;;;;5043527;28;20068;-47
2022/12/11 09:26:50;;;;;;;52.55;23.92;;;5.10;56.70;;;;;;5043744;28;20408;-45
2022/12/11 09:29:18;;;;;;;49.15;23.33;;;5.10;56.60;;;;;;5041931;28;20048;-49
2022/12/11 09:31:47;;;;;;;58.97;25.90;;;5.10;56.60;;;;;;5039881;28;20076;-46
2022/12/11 09:34:15;;;;;;;51.80;24.23;;;5.10;56.50;;;;;;5042808;28;20388;-47
2022/12/11 09:36:43;;;;;;;52.08;23.95;;;5.10;56.50;;;;;;5042174;28;20056;-44
2022/12/11 09:39:12;;;;;;;53.85;23.75;;;5.10;56.50;;;;;;5040966;28;20094;-47
2022/12/11 09:41:46;;;;;;;54.08;24.27;;;5.20;56.50;;;;;;5039506;28;20044;-45
2022/12/11 09:44:37;;;;;;;56.38;25.48;;;5.10;56.40;;;;;;5042346;28;20053;-49
2022/12/11 09:47:22;;;;;;;53.85;24.20;;;5.20;56.50;;;;;;5043019;28;20061;-44
2022/12/11 09:49:53;;;;;;;54.17;23.90;;;5.20;56.40;;;;;;5039437;28;20060;-48
2022/12/11 09:52:29;;;;;;;55.65;24.60;;;5.20;56.90;;;;;;5040131;28;20484;-46
2022/12/11 09:54:59;;;;;;;56.92;25.08;;;5.20;56.30;;;;;;5040257;28;20056;-43
2022/12/11 09:57:39;;;;;;;56.40;25.23;;;5.20;56.20;;;;;;5042823;28;20053;-46
2022/12/11 10:00:14;;;;;;;53.67;25.85;;;5.20;56.20;;;;;;5040068;28;20052;-48
2022/12/11 10:03:01;;;;;;;63.75;27.63;;;5.30;56.20;;;;;;5042937;28;20057;-44
2022/12/11 10:05:36;;;;;;;58.15;26.77;;;5.20;56.20;;;;;;5041511;28;20057;-44
2022/12/11 10:08:11;;;;;;;58.83;26.15;;;5.30;56.20;;;;;;5043033;28;20068;-46
2022/12/11 10:10:43;;;;;;;56.17;25.85;;;5.30;56.20;;;;;;5036386;28;20056;-43
2022/12/11 10:13:21;;;;;;;53.90;25.15;;;5.30;56.30;;;;;;5041724;28;20053;-45
2022/12/11 10:15:55;;;;;;;56.15;27.17;;;5.30;56.30;;;;;;5042280;28;20068;-44
2022/12/11 10:18:26;;;;;;;59.25;25.38;;;5.30;56.20;;;;;;5037737;28;20073;-43
2022/12/11 10:20:55;;;;;;;53.92;25.95;;;5.30;56.20;;;;;;5038922;28;20503;-46
2022/12/11 10:23:29;;;;;;;58.95;28.10;;;5.30;56.20;;;;;;5041893;28;20064;-48
2022/12/11 10:26:02;;;;;;;57.05;26.52;;;5.40;56.20;;;;;;5041568;28;20053;-47
2022/12/11 10:28:30;;;;;;;67.18;30.48;;;5.40;56.20;;;;;;5042975;28;20515;-43
2022/12/11 10:31:09;;;;;;;60.47;28.35;;;5.40;56.20;;;;;;5038290;28;20489;-46
2022/12/11 10:33:46;;;;;;;57.15;26.23;;;5.40;56.10;;;;;;5041967;28;20049;-45
2022/12/11 10:36:17;;;;;;;58.58;26.25;;;5.40;56.10;;;;;;5041461;28;20057;-44
2022/12/11 10:38:46;;;;;;;62.42;27.73;;;5.40;56.20;;;;;;5041196;28;20048;-44
2022/12/11 10:41:18;;;;;;;59.42;28.08;;;5.40;56.20;;;;;;5040031;28;20059;-43
2022/12/11 10:43:48;;;;;;;55.83;28.02;;;5.40;56.20;;;;;;5041885;28;20485;-47
2022/12/11 10:46:19;;;;;;;57.97;27.20;;;5.40;56.20;;;;;;5041338;28;20408;-46
2022/12/11 10:48:47;;;;;;;60.95;27.77;;;5.40;56.10;;;;;;5040776;28;20045;-46
2022/12/11 10:51:15;;;;;;;54.90;26.42;;;5.50;56.10;;;;;;5037703;28;20571;-44
2022/12/11 10:53:43;;;;;;;53.72;25.63;;;5.50;56.00;;;;;;5038762;28;20053;-46
2022/12/11 10:56:12;;;;;;;51.10;25.23;;;5.50;56.00;;;;;;5042579;28;20056;-45
2022/12/11 10:58:49;;;;;;;56.67;27.23;;;5.50;56.00;;;;;;5042485;28;20389;-43
2022/12/11 11:01:22;;;;;;;66.95;32.47;;;5.50;56.00;;;;;;5037900;28;20056;-49
2022/12/11 11:03:56;;;;;;;60.47;29.23;;;5.50;56.00;;;;;;5045711;28;20061;-45
2022/12/11 11:06:24;;;;;;;59.90;28.77;;;5.60;56.00;;;;;;5041565;28;20049;-43
2022/12/11 11:08:54;;;;;;;58.42;27.48;;;5.60;56.00;;;;;;5041819;28;20068;-45
2022/12/11 11:11:25;;;;;;;59.80;28.50;;;5.60;56.00;;;;;;5040660;28;20610;-45
2022/12/11 11:14:04;;;;;;;59.28;28.40;;;5.60;56.00;;;;;;5040921;28;20511;-43
2022/12/11 11:16:36;;;;;;;58.67;28.40;;;5.60;56.00;;;;;;5045610;28;20057;-43
2022/12/11 11:19:04;;;;;;;98.88;40.40;;;5.60;55.90;;;;;;5042747;28;20053;-46
2022/12/11 11:21:32;;;;;;;261.38;100.63;;;5.70;55.90;;;;;;5033753;28;20509;-43
2022/12/11 11:24:00;;;;;;;128.10;53.85;;;5.70;55.90;;;;;;5040182;28;20057;-48
2022/12/11 11:26:31;;;;;;;76.82;35.72;;;5.70;55.90;;;;;;5036031;28;20056;-47
2022/12/11 11:28:58;;;;;;;67.38;31.42;;;5.70;55.80;;;;;;5042685;28;20061;-43
2022/12/11 11:31:34;;;;;;;62.90;31.52;;;5.70;55.70;;;;;;5043305;28;21368;-47
2022/12/11 11:34:05;;;;;;;61.25;29.20;;;5.70;55.70;;;;;;5040086;28;20456;-46
2022/12/11 11:36:34;;;;;;;60.65;28.80;;;5.80;55.70;;;;;;5039880;28;20061;-43
2022/12/11 11:39:17;;;;;;;59.67;28.65;;;5.80;55.70;;;;;;5044945;28;20061;-42
2022/12/11 11:41:51;;;;;;;99.43;45.55;;;5.80;55.60;;;;;;5045705;28;20056;-44
2022/12/11 11:44:24;;;;;;;102.63;53.13;;;5.80;55.50;;;;;;5041127;28;20057;-44
2022/12/11 11:46:58;;;;;;;66.43;34.53;;;5.80;55.50;;;;;;5041556;28;20496;-45
2022/12/11 11:49:37;;;;;;;58.30;28.17;;;5.80;55.40;;;;;;5041256;28;20056;-46
2022/12/11 11:52:24;;;;;;;55.90;27.48;;;5.90;55.40;;;;;;5042462;28;20495;-46
2022/12/11 11:54:59;;;;;;;58.50;26.42;;;5.80;55.20;;;;;;5042524;28;20071;-43
2022/12/11 11:57:35;;;;;;;48.08;23.52;;;5.80;55.10;;;;;;5045309;28;20064;-44
2022/12/11 12:00:19;;;;;;;46.38;23.05;;;5.80;55.20;;;;;;5044206;28;20057;-46
2022/12/11 12:02:53;;;;;;;48.42;23.38;;;5.80;55.20;;;;;;5045769;28;20049;-46
2022/12/11 12:05:36;;;;;;;49.30;23.63;;;5.80;55.20;;;;;;5041658;28;20408;-47
2022/12/11 12:08:13;;;;;;;55.50;25.27;;;5.90;55.20;;;;;;5043210;28;20064;-47
2022/12/11 12:10:49;;;;;;;48.15;24.63;;;5.90;55.00;;;;;;5043575;28;20053;-44
2022/12/11 12:13:25;;;;;;;47.90;22.75;;;5.90;54.90;;;;;;5044451;28;20056;-43
2022/12/11 12:15:57;;;;;;;45.38;22.65;;;5.90;55.00;;;;;;5043447;28;20057;-44
2022/12/11 12:18:35;;;;;;;47.90;22.75;;;5.90;55.00;;;;;;5042707;28;20049;-46
2022/12/11 12:21:15;;;;;;;42.92;22.45;;;5.90;55.00;;;;;;5042918;28;20066;-46
2022/12/11 12:23:53;;;;;;;41.75;20.20;;;5.90;55.00;;;;;;5042933;28;20515;-46
2022/12/11 12:26:27;;;;;;;36.00;18.23;;;5.90;55.10;;;;;;5044020;28;20052;-46
2022/12/11 12:29:00;;;;;;;;;;;5.90;55.10;;;;;;5043485;28;20420;-43
2022/12/11 12:31:44;;;;;;;36.63;17.85;;;6.00;55.20;;;;;;5040846;28;19921;-48
2022/12/11 12:34:21;;;;;;;34.57;17.20;;;6.00;55.10;;;;;;5038621;28;20041;-47
2022/12/11 12:36:58;;;;;;;26.80;13.77;;;6.00;55.10;;;;;;5038420;28;20506;-43
2022/12/11 12:39:31;;;;;;;20.52;11.30;;;6.00;55.00;;;;;;5043205;28;20079;-49
2022/12/11 12:42:06;;;;;;;26.88;13.25;;;6.00;55.00;;;;;;5039873;28;20060;-49
2022/12/11 12:44:40;;;;;;;29.13;13.82;;;6.00;54.90;;;;;;5039445;28;20504;-44
2022/12/11 12:47:11;;;;;;;23.42;12.40;;;6.00;54.80;;;;;;5038135;28;20049;-44
2022/12/11 12:49:42;;;;;;;25.73;14.23;;;6.10;54.80;;;;;;5043491;28;20056;-48
2022/12/11 12:52:15;;;;;;;26.38;14.13;;;6.10;54.70;;;;;;5040695;28;21606;-42
2022/12/11 12:55:12;;;;;;;26.00;12.88;;;6.10;54.60;;;;;;5043308;28;20412;-43
2022/12/11 12:57:34;;;;;;;24.73;12.65;;;6.10;54.60;;;;;;5043079;28;20408;-45
2022/12/11 13:00:02;;;;;;;17.83;10.40;;;6.10;54.60;;;;;;5043313;28;20084;-43
2022/12/11 13:02:30;;;;;;;18.40;9.35;;;6.10;54.50;;;;;;5042938;28;20056;-49